Sedgwick Reserve, California Weather observations

Data are for 10 minute period ending at time listed.
 Day   Time   Solar   Ave.   Ave.  Ave.  Vector  Max.   Baro.   Total    
  of    of     Rad.   Air    Rel.  Wind   Wind   Wind  Press.  Precip.   
Year   Day            Temp.  Hum.  Speed  Dir.   Gust                    
2017   (PST)  Kw/m2    F      %     mph   deg.    mph    mb.     in.     
-------------------------------------------------------------------------
 112   14:20   0.72   78.7    36   12.3   277    18.5   970.5    0.00 
 112   14:30   0.70   78.5    36   12.2   277    19.9   970.4    0.00 
 112   14:40   0.67   78.7    35   11.5   273    18.6   970.4    0.00 
 112   14:50   0.65   77.6    35   11.2   288    17.2   970.4    0.00 
 112   15:00   0.61   77.9    35    8.9   277    16.7   970.3    0.00 
 112   15:10   0.54   76.8    36   12.5   274    22.0   970.2    0.00 
 112   15:20   0.56   75.7    36   12.5   270    20.8   970.2    0.00 
 112   15:30   0.53   76.7    36    9.2   276    16.3   970.2    0.00 
 112   15:40   0.50   76.9    36   11.5   278    21.9   970.2    0.00 
 112   15:50   0.43   75.4    36   14.0   272    20.5   970.2    0.00 
 112   16:00   0.37   74.6    37   13.4   272    18.9   970.3    0.00 
 112   16:10   0.38   74.9    37    9.9   274    18.6   970.3    0.00 
 112   16:20   0.33   74.8    37   11.2   289    18.6   970.4    0.00 
 112   16:30   0.23   72.7    40   11.4   269    19.8   970.3    0.00 
 112   16:40   0.32   73.0    39   10.3   268    18.6   970.4    0.00 
 112   16:50   0.27   73.0    39    9.2   268    15.9   970.6    0.00 
 112   17:00   0.22   72.3    40    9.4   277    17.4   970.6    0.00 
 112   17:10   0.20   72.8    40    6.4   270    14.5   970.6    0.00 
 112   17:20   0.11   71.2    41    7.1   269    13.5   970.8    0.00 
 112   17:30   0.12   69.8    42    7.9   273    14.5   970.9    0.00 
 112   17:40   0.10   69.4    44    7.8   263    13.9   971.0    0.00 
 112   17:50   0.09   68.0    47    6.7   261    11.1   970.8    0.00 
 112   18:00   0.07   67.1    49    6.9   272    11.3   970.9    0.00 
 112   18:10   0.04   66.7    50    5.0   255     9.4   970.9    0.00 
 112   18:20   0.03   65.8    51    4.5   220     7.2   970.9    0.00 
 112   18:30   0.01   64.6    54    5.8   235     9.9   971.1    0.00 
 112   18:40   0.00   63.7    57    4.8   238     7.7   971.1    0.00 
 112   18:50   0.00   62.6    61    3.8   172     7.0   971.2    0.00 
 112   19:00   0.00   60.0    70    3.8   104     6.7   971.3    0.00 
 112   19:10   0.00   58.3    75    4.6    84     8.0   971.3    0.00 
 112   19:20   0.00   57.7    77    3.0   142     5.8   971.4    0.00 
 112   19:30   0.00   57.2    78    2.6   157     3.5   971.3    0.00 
 112   19:40   0.00   57.0    79    1.1   188     2.4   971.3    0.00 
 112   19:50   0.00   56.0    81    2.3    14     3.4   971.4    0.00 
 112   20:00   0.00   55.5    82    1.0   287     2.8   971.5    0.00 
 112   20:10   0.00   54.9    83    2.5     5     5.0   971.5    0.00 
 112   20:20   0.00   54.2    84    3.7   304     6.4   971.5    0.00 
 112   20:30   0.00   54.8    83    4.2   284     6.7   971.7    0.00 
 112   20:40   0.00   54.6    84    2.4   303     4.2   972.0    0.00 
 112   20:50   0.00   54.6    83    2.6   348     5.4   972.3    0.00 
 112   21:00   0.00   54.4    82    2.2   286     4.2   972.3    0.00 
 112   21:10   0.00   53.7    84    1.7   119     2.8   972.2    0.00 
 112   21:20   0.00   53.0    85    2.5   191     4.2   972.2    0.00 
 112   21:30   0.00   53.3    85    2.8   141     5.6   972.0    0.00 
 112   21:40   0.00   52.3    87    2.4    74     5.7   972.0    0.00 
 112   21:50   0.00   52.4    88    1.7   217     3.1   971.9    0.00 
 112   22:00   0.00   52.4    88    3.0   116     5.8   971.9    0.00 
 112   22:10   0.00   52.0    89    4.0   108     6.0   971.7    0.00 
 112   22:20   0.00   51.4    91    2.4   153     5.3   971.4    0.00 
 112   22:30   0.00   51.2    93    4.2   235     7.0   971.5    0.00 
 112   22:40   0.00   51.6    92    3.0   311     4.6   971.5    0.00 
 112   22:50   0.00   50.8    93    4.1   352     5.4   971.6    0.00 
 112   23:00   0.00   50.6    94    3.4   356     5.0   971.4    0.00 
 112   23:10   0.00   50.6    94    2.0   356     3.6   971.2    0.00 
 112   23:20   0.00   50.1    94    2.0     7     3.3   971.2    0.00 
 112   23:30   0.00   49.1    94    2.0   307     3.9   971.2    0.00 
 112   23:40   0.00   49.0    94    3.1   272     4.2   971.2    0.00 
 112   23:50   0.00   48.8    94    2.5   348     3.5   971.3    0.00 
 113    0:00   0.00   48.3    94    1.2   309     2.9   971.3    0.00 
 113    0:10   0.00   48.0    94    0.5   284     1.2   971.2    0.00 
 113    0:20   0.00   47.2    94    2.3    12     4.3   971.1    0.00 
 113    0:30   0.00   47.0    95    1.6   259     3.4   971.0    0.00 
 113    0:40   0.00   47.0    95    3.5   286     4.7   970.9    0.00 
 113    0:50   0.00   46.0    95    2.6     2     3.4   970.8    0.00 
 113    1:00   0.00   46.2    96    1.6   335     3.4   970.5    0.00 
 113    1:10   0.00   46.0    95    1.3   220     2.6   970.5    0.00 
 113    1:20   0.00   45.9    96    2.1   267     3.1   970.4    0.00 
 113    1:30   0.00   46.0    96    0.7   284     2.6   970.3    0.00 
 113    1:40   0.00   45.6    96    2.2     4     3.9   970.2    0.00 
 113    1:50   0.00   46.0    97    2.6     1     4.2   970.0    0.00 
 113    2:00   0.00   47.0    96    1.6   274     2.9   969.9    0.00 
 113    2:10   0.00   47.6    96    1.9   321     2.9   969.9    0.00 
 113    2:20   0.00   47.3    96    3.2     4     4.0   969.9    0.00 
 113    2:30   0.00   48.1    97    2.9   308     4.4   970.0    0.00 
 113    2:40   0.00   49.2    97    1.3   344     2.6   970.0    0.00 
 113    2:50   0.00   49.1    97    1.4    11     2.6   970.0    0.00 
 113    3:00   0.00   49.4    98    0.8   321     1.9   970.2    0.00 
 113    3:10   0.00   49.7    98    1.3    37     3.3   970.2    0.00 
 113    3:20   0.00   49.8    98    1.3    35     2.8   970.1    0.00 
 113    3:30   0.00   49.8    98    1.4    30     2.1   970.1    0.00 
 113    3:40   0.00   49.9    98    1.4    50     4.0   970.1    0.00 
 113    3:50   0.00   49.9    99    3.0    64     4.8   969.9    0.00 
 113    4:00   0.00   49.9    99    0.7   268     2.0   970.2    0.00 
 113    4:10   0.00   49.9    99    1.5    18     2.9   970.3    0.00 
 113    4:20   0.00   49.9    99    1.7    22     3.1   970.3    0.00 
 113    4:30   0.00   50.0    99    1.1    52     2.7   970.1    0.00 
 113    4:40   0.00   50.1    99    1.1    68     2.6   970.0    0.00 
 113    4:50   0.00   50.1    99    1.8    79     3.1   970.0    0.00 
 113    5:00   0.00   50.1    99    1.8    19     3.3   970.2    0.00 
 113    5:10   0.00   49.9    99    2.4    66     4.5   970.3    0.00 
 113    5:20   0.00   49.9    99    2.6    70     4.4   970.3    0.00 
 113    5:30   0.00   49.8    99    1.1    25     2.8   970.6    0.00 
 113    5:40   0.01   49.6    99    1.7    19     3.4   970.8    0.00 
 113    5:50   0.01   49.7    99    2.2    53     4.0   970.8    0.00 
 113    6:00   0.02   49.7    99    1.9    84     5.0   970.8    0.00 
 113    6:10   0.01   49.4    99    2.6   270     5.0   970.9    0.00 
 113    6:20   0.02   49.4    99    2.6   256     4.7   971.3    0.00 
 113    6:30   0.03   49.7    99    1.0    64     3.1   971.5    0.00 
 113    6:40   0.04   50.0    99    1.6    16     3.9   971.6    0.00 
 113    6:50   0.05   50.2    99    0.3    53     1.4   971.6    0.00 
 113    7:00   0.07   50.6    99    1.1    97     2.7   971.7    0.00 
 113    7:10   0.08   50.7    98    2.5   118     4.6   971.6    0.00 
 113    7:20   0.08   50.5    98    2.6    92     5.7   971.7    0.00 
 113    7:30   0.08   51.1    98    1.8   127     5.3   971.7    0.00 
 113    7:40   0.11   51.3    98    2.5    70     4.9   971.5    0.00 
 113    7:50   0.14   51.8    97    1.3    79     4.0   971.4    0.00 
 113    8:00   0.14   51.6    96    2.2   165     4.4   971.2    0.00 
 113    8:10   0.14   51.1    96    3.2   196     5.3   971.4    0.00 
 113    8:20   0.17   51.5    95    3.0    54     4.8   971.4    0.00 
 113    8:30   0.18   52.2    94    1.9    48     4.5   971.4    0.00 
 113    8:40   0.22   52.8    92    1.7   173     3.1   971.4    0.00 
 113    8:50   0.28   53.6    91    1.9   172     4.6   971.4    0.00 
 113    9:00   0.27   53.9    89    2.4   254     6.3   971.7    0.00 
 113    9:10   0.26   53.8    88    2.6   276     6.4   971.9    0.00 
 113    9:20   0.33   54.5    87    0.9   229     2.4   972.0    0.00 
 113    9:30   0.39   56.2    83    3.8   272     9.2   972.0    0.00 
 113    9:40   0.59   56.5    81    3.8   274     7.4   972.0    0.00 
 113    9:50   0.86   58.8    77    2.3   239     7.5   971.9    0.00 
 113   10:00   0.84   59.1    76    3.2   250     6.4   971.8    0.00 
 113   10:10   0.85   60.6    73    3.9   207     6.6   971.8    0.00 
 113   10:20   0.86   62.5    70    5.8   212    10.8   971.6    0.00 
 113   10:30   0.87   64.3    67    4.9   237    11.5   971.5    0.00 
 113   10:40   0.89   65.5    66    4.3   206     8.0   971.3    0.00 
 113   10:50   0.90   68.3    61    4.4   223    12.1   971.2    0.00 
 113   11:00   0.90   70.6    56    5.8   300    13.2   971.0    0.00 
 113   11:10   0.91   70.4    54   10.1   283    16.4   970.8    0.00 
 113   11:20   0.91   69.8    54   12.1   269    17.4   970.6    0.00 
 113   11:30   0.86   70.5    53   11.0   267    16.9   970.4    0.00 
 113   11:40   0.91   71.1    51   11.0   267    20.2   970.2    0.00 
 113   11:50   0.89   71.7    50   14.4   280    26.7   970.0    0.00 
 113   12:00   0.89   70.9    50   16.0   275    26.2   970.0    0.00 
 113   12:10   0.85   71.4    49   16.4   279    27.8   970.0    0.00 
 113   12:20   0.87   71.3    49   16.3   277    27.3   970.1    0.00 
 113   12:30   0.87   71.1    49   16.4   291    24.1   970.1    0.00 
 113   12:40   0.87   71.5    48   13.7   287    26.0   970.1    0.00 
 113   12:50   0.86   70.6    48   15.8   294    27.2   970.0    0.00 
 113   13:00   0.86   70.0    48   15.3   286    28.8   970.0    0.00 
 113   13:10   0.82   69.0    49   18.4   280    28.2   970.0    0.00 
 113   13:20   0.82   69.5    48   16.3   285    24.5   970.0    0.00 
 113   13:30   0.81   69.9    48   15.4   284    23.4   970.1    0.00 
 113   13:40   0.75   69.3    48   17.6   279    28.1   970.0    0.00 
 113   13:50   0.75   68.8    49   17.9   282    26.9   970.0    0.00 
 113   14:00   0.75   68.6    49   16.6   280    27.6   970.0    0.00 
 113   14:10   0.73   68.7    49   17.2   277    27.0   969.9    0.00 

Return to Sedgwick Reserve graphs page.


Western Regional Climate Center,wrcc@dri.edu